Time;durP1;ratioP1;P1;durP2;ratioP2;P2;SDS_P1;SDS_P2;PMS_P1;PMS_P2;Temp;Humidity;BMP_temperature;BMP_pressure;BME280_temperature;BME280_humidity;BME280_pressure;Samples;Min_cycle;Max_cycle;Signal;HPM_P1;HPM_P2
2023/12/23 00:01:38;;;;;;;1.45;0.63;;;17.10;79.20;;;;;;5883375;23;46020;-59
2023/12/23 00:04:31;;;;;;;0.95;0.32;;;17.10;79.80;;;;;;5905085;23;45513;-60
2023/12/23 00:07:03;;;;;;;3.45;0.47;;;17.10;79.60;;;;;;5875835;23;45400;-60
2023/12/23 00:09:51;;;;;;;1.15;0.30;;;17.10;79.20;;;;;;5890418;23;45556;-59
2023/12/23 00:12:37;;;;;;;2.00;0.52;;;17.20;80.00;;;;;;5891274;23;46237;-59
2023/12/23 00:15:04;;;;;;;2.03;0.40;;;17.20;79.10;;;;;;5876429;23;45552;-60
2023/12/23 00:17:50;;;;;;;0.40;0.30;;;17.10;80.00;;;;;;5887649;23;45420;-59
2023/12/23 00:20:26;;;;;;;2.00;0.50;;;17.20;80.10;;;;;;5906822;23;45467;-59
2023/12/23 00:22:57;;;;;;;2.03;0.30;;;17.10;79.10;;;;;;5862847;23;45242;-59
2023/12/23 00:25:50;;;;;;;1.52;0.35;;;17.10;79.60;;;;;;5893594;23;45366;-59
2023/12/23 00:28:22;;;;;;;0.77;0.30;;;17.10;79.30;;;;;;5939986;23;45001;-59
2023/12/23 00:34:51;;;;;;;2.10;0.50;;;17.10;78.90;;;;;;5948891;23;45125;-58
2023/12/23 00:39:58;;;;;;;4.00;0.60;;;17.10;79.50;;;;;;5926476;23;45543;-59
2023/12/23 00:42:26;;;;;;;3.10;0.77;;;17.10;78.90;;;;;;5946905;23;45054;-59
2023/12/23 00:48:13;;;;;;;1.17;0.47;;;17.10;79.50;;;;;;5943649;23;45102;-59
2023/12/23 00:50:41;;;;;;;1.27;0.40;;;17.20;79.40;;;;;;5962296;23;45492;-58
2023/12/23 00:53:10;;;;;;;0.73;0.30;;;17.10;79.60;;;;;;5960023;23;45381;-58
2023/12/23 00:58:45;;;;;;;0.40;0.20;;;17.20;79.80;;;;;;5944729;23;45354;-58
2023/12/23 01:01:39;;;;;;;2.50;0.43;;;17.10;79.30;;;;;;5957783;23;45209;-57
2023/12/23 01:04:31;;;;;;;1.55;0.52;;;17.10;79.80;;;;;;5944285;23;45225;-59
2023/12/23 01:06:58;;;;;;;0.57;0.30;;;17.10;80.00;;;;;;5940517;23;45863;-58
2023/12/23 01:09:26;;;;;;;2.05;0.38;;;17.20;79.60;;;;;;5948476;23;45301;-59
2023/12/23 01:12:06;;;;;;;2.75;0.40;;;17.10;79.70;;;;;;5948113;23;45469;-58
2023/12/23 01:15:17;;;;;;;0.57;0.40;;;17.10;80.20;;;;;;5941054;23;45495;-58
2023/12/23 01:18:09;;;;;;;0.50;0.30;;;17.10;79.90;;;;;;5975616;23;46619;-58
2023/12/23 01:20:49;;;;;;;0.40;0.25;;;17.10;79.40;;;;;;5953863;23;45679;-59
2023/12/23 01:23:16;;;;;;;1.08;0.50;;;17.20;79.30;;;;;;5930965;23;45074;-58
2023/12/23 01:26:06;;;;;;;2.08;0.68;;;17.10;80.00;;;;;;5968005;23;45074;-58
2023/12/23 01:29:09;;;;;;;1.20;0.35;;;17.10;79.20;;;;;;5958609;23;47330;-58
2023/12/23 01:32:20;;;;;;;1.27;0.22;;;17.10;79.40;;;;;;5912040;23;45424;-58
2023/12/23 01:34:47;;;;;;;0.82;0.40;;;17.10;79.30;;;;;;5928080;23;45361;-59
2023/12/23 01:37:31;;;;;;;1.13;0.30;;;17.10;79.50;;;;;;5966682;23;45080;-58
2023/12/23 01:39:57;;;;;;;0.88;0.25;;;17.10;79.20;;;;;;5934052;23;46310;-59
2023/12/23 01:42:46;;;;;;;1.65;0.40;;;17.10;79.90;;;;;;5941942;23;45481;-58
2023/12/23 01:45:35;;;;;;;0.90;0.20;;;17.10;80.30;;;;;;5959509;23;45133;-58
2023/12/23 01:50:58;;;;;;;2.10;0.40;;;17.10;80.60;;;;;;5937091;23;45414;-58
2023/12/23 01:54:00;;;;;;;0.63;0.30;;;17.10;80.40;;;;;;5955358;23;45160;-58
2023/12/23 01:56:53;;;;;;;1.02;0.50;;;17.20;80.30;;;;;;6044896;23;45118;-58
2023/12/23 02:02:49;;;;;;;0.65;0.20;;;17.20;80.50;;;;;;5925296;23;46028;-58
2023/12/23 02:05:17;;;;;;;1.67;0.40;;;17.20;80.50;;;;;;5943800;23;45473;-57
2023/12/23 02:08:11;;;;;;;1.15;0.40;;;17.20;80.40;;;;;;5936880;23;45230;-58
2023/12/23 02:10:54;;;;;;;1.27;0.35;;;17.20;80.50;;;;;;5940270;23;45274;-58
2023/12/23 02:17:10;;;;;;;1.23;0.60;;;17.20;80.90;;;;;;5910492;23;45732;-58
2023/12/23 02:19:37;;;;;;;1.80;0.30;;;17.20;80.50;;;;;;5956780;23;45087;-58
2023/12/23 02:22:08;;;;;;;0.93;0.32;;;17.20;80.70;;;;;;5948496;23;45257;-58
2023/12/23 02:24:36;;;;;;;2.03;0.50;;;17.20;80.40;;;;;;5953523;23;46725;-58
2023/12/23 02:27:39;;;;;;;1.10;0.32;;;17.20;79.90;;;;;;5967641;23;45166;-57
2023/12/23 02:30:19;;;;;;;0.75;0.30;;;17.20;80.30;;;;;;5945071;23;45299;-58
2023/12/23 02:32:46;;;;;;;2.28;0.50;;;17.10;80.30;;;;;;5944432;23;45377;-58
2023/12/23 02:35:13;;;;;;;2.17;0.38;;;17.10;79.60;;;;;;5948480;23;47667;-58
2023/12/23 02:37:44;;;;;;;2.17;0.50;;;17.10;79.20;;;;;;5943254;23;45370;-57
2023/12/23 02:40:12;;;;;;;0.93;0.40;;;17.10;79.30;;;;;;5954870;23;45633;-57
2023/12/23 02:42:39;;;;;;;0.93;0.40;;;17.10;79.00;;;;;;5948308;23;45246;-58
2023/12/23 02:45:35;;;;;;;1.02;0.30;;;17.10;79.10;;;;;;5958796;23;47524;-57
2023/12/23 02:48:28;;;;;;;2.53;0.60;;;17.10;79.40;;;;;;5956833;23;45494;-57
2023/12/23 02:50:54;;;;;;;1.45;0.40;;;17.10;78.90;;;;;;5954412;23;45097;-58
2023/12/23 02:56:57;;;;;;;1.88;0.60;;;17.10;78.90;;;;;;5914736;23;45583;-60
2023/12/23 02:59:47;;;;;;;1.17;0.45;;;17.10;78.70;;;;;;5955638;23;45124;-60
2023/12/23 03:02:14;;;;;;;2.60;0.82;;;17.10;79.10;;;;;;5954493;23;45092;-60
2023/12/23 03:05:02;;;;;;;1.92;0.60;;;17.10;79.40;;;;;;5973820;23;45395;-59
2023/12/23 03:10:10;;;;;;;3.83;0.60;;;17.10;79.00;;;;;;5943827;23;45376;-61
2023/12/23 03:12:38;;;;;;;1.42;0.68;;;17.10;78.80;;;;;;5956837;23;45003;-60
2023/12/23 03:15:07;;;;;;;1.42;0.57;;;17.10;79.00;;;;;;5958979;23;45103;-60
2023/12/23 03:17:55;;;;;;;1.88;0.73;;;17.10;78.60;;;;;;5972903;23;47316;-60
2023/12/23 03:20:44;;;;;;;2.83;0.40;;;17.10;78.60;;;;;;5947661;23;45018;-60
2023/12/23 03:26:15;;;;;;;2.20;0.85;;;17.10;78.40;;;;;;5940517;23;45372;-59
2023/12/23 03:29:09;;;;;;;1.48;0.73;;;17.10;78.20;;;;;;5967684;23;45714;-60
2023/12/23 03:31:36;;;;;;;2.75;0.70;;;17.10;78.20;;;;;;5958028;23;45090;-60
2023/12/23 03:34:31;;;;;;;1.10;0.52;;;17.10;78.00;;;;;;5976541;23;45410;-60
2023/12/23 03:36:58;;;;;;;1.42;0.70;;;17.00;78.00;;;;;;5946197;23;45293;-60
2023/12/23 03:39:27;;;;;;;3.17;0.73;;;17.10;78.00;;;;;;5978519;23;46332;-60
2023/12/23 03:42:13;;;;;;;2.90;1.00;;;17.00;78.00;;;;;;5966315;23;45436;-60
2023/12/23 03:44:41;;;;;;;1.52;0.90;;;17.00;78.00;;;;;;5963025;23;45285;-61
2023/12/23 03:47:41;;;;;;;1.60;0.80;;;17.00;78.30;;;;;;5983833;23;45383;-60
2023/12/23 03:50:11;;;;;;;2.53;0.82;;;17.00;78.50;;;;;;5966583;23;45860;-60
2023/12/23 03:52:37;;;;;;;3.30;0.95;;;17.10;78.30;;;;;;5968617;23;45198;-61
2023/12/23 03:55:32;;;;;;;1.30;0.77;;;17.10;78.60;;;;;;5968924;23;45551;-60
2023/12/23 03:57:59;;;;;;;3.35;0.93;;;17.10;78.40;;;;;;5955019;23;45488;-60
2023/12/23 04:03:45;;;;;;;2.60;0.82;;;17.10;78.20;;;;;;5944150;23;45179;-60
2023/12/23 04:06:34;;;;;;;2.90;0.75;;;17.00;78.20;;;;;;5972209;23;45099;-59
2023/12/23 04:09:24;;;;;;;1.95;0.63;;;17.10;78.20;;;;;;5954065;23;45031;-60
2023/12/23 04:12:01;;;;;;;1.90;0.70;;;17.00;77.80;;;;;;5974136;23;47249;-59
2023/12/23 04:14:28;;;;;;;1.85;0.75;;;17.00;78.20;;;;;;5944455;23;45429;-60
2023/12/23 04:17:22;;;;;;;3.00;0.80;;;17.10;77.80;;;;;;5956951;23;45301;-59
2023/12/23 04:20:22;;;;;;;4.88;1.00;;;17.10;77.10;;;;;;5968909;23;45388;-59
2023/12/23 04:25:29;;;;;;;1.40;0.70;;;17.00;77.30;;;;;;5936657;23;45466;-59
2023/12/23 04:28:28;;;;;;;2.58;1.05;;;17.00;76.80;;;;;;5970816;23;45162;-59
2023/12/23 04:30:57;;;;;;;2.75;0.80;;;17.00;76.50;;;;;;5967794;23;45033;-60
2023/12/23 04:33:53;;;;;;;2.50;0.80;;;17.00;77.10;;;;;;5960047;23;47287;-59
2023/12/23 04:39:46;;;;;;;3.05;1.00;;;17.00;76.20;;;;;;5935868;23;45256;-59
2023/12/23 04:42:36;;;;;;;1.98;0.60;;;17.00;75.90;;;;;;5984483;23;45281;-59
2023/12/23 04:45:36;;;;;;;2.78;0.70;;;17.00;75.60;;;;;;5976420;23;46788;-59
2023/12/23 04:48:36;;;;;;;2.90;0.80;;;17.00;75.60;;;;;;5961496;23;45231;-59
2023/12/23 04:56:30;;;;;;;5.07;1.13;;;17.00;76.20;;;;;;5931968;23;45883;-60
2023/12/23 04:59:00;;;;;;;2.58;0.95;;;17.00;76.40;;;;;;5961086;23;45058;-58
2023/12/23 05:01:54;;;;;;;2.33;0.80;;;17.00;76.20;;;;;;5972844;23;45331;-59
2023/12/23 05:04:52;;;;;;;2.10;0.68;;;17.00;75.60;;;;;;5969597;23;45124;-59
2023/12/23 05:07:41;;;;;;;2.00;0.95;;;17.00;76.00;;;;;;5964105;23;46771;-59
2023/12/23 05:13:32;;;;;;;3.20;1.10;;;17.00;75.60;;;;;;5941143;23;45200;-59
2023/12/23 05:16:29;;;;;;;2.05;0.57;;;17.00;75.60;;;;;;5962252;23;45285;-58
2023/12/23 05:19:18;;;;;;;2.80;0.90;;;17.00;75.60;;;;;;5952036;23;46280;-58
2023/12/23 05:22:13;;;;;;;1.92;0.60;;;17.00;75.60;;;;;;5961092;23;45186;-58
2023/12/23 05:25:01;;;;;;;1.75;0.65;;;17.00;75.60;;;;;;5963938;23;45054;-59
2023/12/23 05:27:53;;;;;;;1.27;0.60;;;17.00;75.60;;;;;;6002708;23;45370;-58
2023/12/23 05:30:19;;;;;;;1.02;0.52;;;17.00;75.20;;;;;;5946747;23;46252;-59
2023/12/23 05:33:08;;;;;;;3.40;0.90;;;17.00;74.90;;;;;;5956785;23;45311;-58
2023/12/23 05:35:54;;;;;;;3.45;0.90;;;17.00;74.90;;;;;;5943099;23;45373;-58
2023/12/23 05:38:20;;;;;;;4.05;0.80;;;17.00;74.70;;;;;;5956444;23;45194;-59
2023/12/23 05:41:22;;;;;;;2.60;0.70;;;17.00;74.70;;;;;;6000660;23;45815;-58
2023/12/23 05:44:32;;;;;;;1.40;0.60;;;16.90;74.90;;;;;;5947038;23;45122;-59
2023/12/23 05:46:59;;;;;;;2.53;0.77;;;16.90;74.70;;;;;;5955079;23;45139;-59
2023/12/23 05:49:53;;;;;;;1.77;0.73;;;17.00;74.60;;;;;;5950938;23;45221;-58
2023/12/23 05:52:20;;;;;;;3.63;0.75;;;16.90;75.60;;;;;;5941480;23;47249;-59
2023/12/23 05:54:49;;;;;;;1.52;0.77;;;17.00;75.60;;;;;;5963648;23;45047;-58
2023/12/23 05:57:35;;;;;;;1.58;0.55;;;17.00;75.40;;;;;;5964693;23;45320;-58
2023/12/23 06:03:39;;;;;;;1.75;0.63;;;17.00;74.90;;;;;;5943886;23;45848;-58
2023/12/23 06:06:33;;;;;;;1.45;0.52;;;17.00;75.20;;;;;;5966827;23;45499;-58
2023/12/23 06:09:03;;;;;;;2.13;0.70;;;17.00;74.70;;;;;;5952140;23;45185;-58
2023/12/23 06:12:01;;;;;;;3.17;0.75;;;17.00;75.00;;;;;;5966912;23;45123;-58
2023/12/23 06:14:36;;;;;;;2.17;0.90;;;17.00;74.90;;;;;;5956655;23;46763;-59
2023/12/23 06:17:09;;;;;;;2.10;0.70;;;17.00;74.60;;;;;;5965054;23;45142;-60
2023/12/23 06:20:08;;;;;;;3.22;0.70;;;17.00;74.30;;;;;;5956672;23;45373;-57
2023/12/23 06:25:45;;;;;;;2.42;0.55;;;17.00;74.30;;;;;;5945822;23;45301;-58
2023/12/23 06:28:31;;;;;;;2.65;0.93;;;17.00;73.70;;;;;;5951218;23;45079;-59
2023/12/23 06:30:58;;;;;;;1.63;0.70;;;17.00;74.00;;;;;;5944851;23;45165;-58
2023/12/23 06:33:51;;;;;;;2.60;0.80;;;17.00;73.70;;;;;;5949646;23;45125;-58
2023/12/23 06:36:18;;;;;;;3.17;0.70;;;17.00;73.50;;;;;;5952634;23;45778;-58
2023/12/23 06:39:15;;;;;;;3.53;0.90;;;17.00;73.30;;;;;;5941514;23;45215;-58
2023/12/23 06:44:22;;;;;;;3.53;0.65;;;16.90;73.50;;;;;;5930610;23;45491;-58
2023/12/23 06:46:49;;;;;;;2.05;0.70;;;17.00;73.30;;;;;;5942359;23;47331;-58
2023/12/23 06:49:47;;;;;;;3.88;0.65;;;16.90;73.40;;;;;;5947638;23;45253;-58
2023/12/23 06:56:04;;;;;;;1.63;0.40;;;16.90;73.80;;;;;;5958908;23;46041;-58
2023/12/23 06:58:51;;;;;;;2.45;0.60;;;17.00;73.60;;;;;;5946119;23;46445;-59
2023/12/23 07:01:45;;;;;;;1.63;0.68;;;17.00;73.60;;;;;;5968070;23;45234;-57
2023/12/23 07:04:35;;;;;;;3.35;0.95;;;17.00;73.80;;;;;;5966273;23;45301;-58
2023/12/23 07:07:22;;;;;;;4.00;0.88;;;17.00;73.80;;;;;;5971654;23;45176;-58
2023/12/23 07:10:36;;;;;;;3.17;0.77;;;17.00;73.70;;;;;;5976864;23;45887;-58
2023/12/23 07:13:06;;;;;;;2.78;0.55;;;17.00;74.00;;;;;;5942759;23;45357;-58
2023/12/23 07:16:02;;;;;;;1.45;0.50;;;17.00;74.00;;;;;;5955362;23;45231;-57
2023/12/23 07:18:29;;;;;;;1.80;0.73;;;17.00;74.00;;;;;;5951614;23;45445;-58
2023/12/23 07:20:57;;;;;;;1.40;0.68;;;17.00;74.20;;;;;;5941676;23;47335;-58
2023/12/23 07:23:53;;;;;;;2.60;0.70;;;17.00;74.30;;;;;;5960198;23;45457;-57
2023/12/23 07:26:21;;;;;;;1.55;0.65;;;17.00;74.20;;;;;;5959754;23;45171;-59
2023/12/23 07:28:48;;;;;;;2.95;0.65;;;17.00;74.50;;;;;;5947285;23;45445;-58
2023/12/23 07:37:45;;;;;;;3.70;1.00;;;17.00;75.10;;;;;;5944196;23;45308;-57
2023/12/23 07:40:26;;;;;;;1.35;0.63;;;17.00;74.70;;;;;;5937413;23;45443;-57
2023/12/23 07:43:14;;;;;;;3.13;0.68;;;17.00;75.00;;;;;;5934822;23;47223;-56
2023/12/23 07:45:40;;;;;;;3.75;0.73;;;17.00;75.30;;;;;;5933675;23;45556;-57
2023/12/23 07:48:20;;;;;;;1.85;0.65;;;17.00;75.30;;;;;;5947864;23;45353;-56
2023/12/23 07:51:09;;;;;;;2.65;0.75;;;17.00;75.30;;;;;;5940055;23;45467;-57
2023/12/23 07:54:24;;;;;;;1.83;0.50;;;17.00;75.70;;;;;;6044034;23;47345;-56
2023/12/23 07:57:18;;;;;;;1.73;0.80;;;17.00;75.60;;;;;;5946682;23;45342;-56
2023/12/23 08:00:16;;;;;;;4.97;0.85;;;17.00;75.60;;;;;;5948864;23;45364;-58
2023/12/23 08:03:14;;;;;;;3.17;0.70;;;17.00;75.60;;;;;;5953162;23;45459;-57
2023/12/23 08:05:41;;;;;;;0.80;0.52;;;17.00;75.60;;;;;;5950232;23;47145;-57
2023/12/23 08:08:22;;;;;;;1.42;0.70;;;17.00;75.60;;;;;;5930917;23;45405;-58
2023/12/23 08:11:16;;;;;;;1.02;0.70;;;17.00;75.70;;;;;;5944401;23;45518;-57
2023/12/23 08:13:46;;;;;;;2.10;0.82;;;17.00;75.60;;;;;;5943638;23;45297;-57
2023/12/23 08:16:13;;;;;;;2.65;0.70;;;17.00;75.60;;;;;;5952018;23;46762;-58
2023/12/23 08:19:07;;;;;;;3.70;0.90;;;17.00;75.60;;;;;;5963562;23;45439;-57
2023/12/23 08:21:48;;;;;;;1.75;0.52;;;17.00;76.00;;;;;;5953143;23;45392;-58
2023/12/23 08:24:48;;;;;;;4.18;1.02;;;17.00;75.60;;;;;;5946288;23;45384;-57
2023/12/23 08:27:28;;;;;;;1.88;0.70;;;17.00;75.60;;;;;;5956233;23;45571;-58
2023/12/23 08:29:56;;;;;;;2.13;0.65;;;17.00;75.60;;;;;;5944150;23;45051;-58
2023/12/23 08:32:44;;;;;;;2.78;0.80;;;17.00;75.60;;;;;;5955263;23;45354;-57
2023/12/23 08:35:11;;;;;;;1.50;0.65;;;17.00;75.70;;;;;;5941475;23;45383;-56
2023/12/23 08:38:12;;;;;;;2.65;0.80;;;17.00;75.60;;;;;;5966752;23;46514;-57
2023/12/23 08:40:39;;;;;;;2.45;1.02;;;17.00;75.60;;;;;;5947952;23;45656;-57
2023/12/23 08:43:45;;;;;;;3.00;0.77;;;17.00;75.70;;;;;;5943277;23;45426;-56
2023/12/23 08:46:19;;;;;;;2.58;0.98;;;17.00;75.60;;;;;;5931396;23;45616;-57
2023/12/23 08:49:25;;;;;;;5.10;0.82;;;17.00;75.70;;;;;;5948334;23;46949;-56
2023/12/23 08:52:01;;;;;;;4.43;0.90;;;17.00;75.60;;;;;;5939633;23;45409;-57
2023/12/23 09:01:22;;;;;;;2.95;0.90;;;17.00;75.60;;;;;;5867082;23;45570;-60
2023/12/23 09:03:56;;;;;;;5.20;0.98;;;17.00;76.60;;;;;;5927547;23;45208;-59
2023/12/23 09:06:44;;;;;;;1.42;0.50;;;17.10;77.70;;;;;;5955128;23;45206;-59
2023/12/23 09:09:11;;;;;;;2.92;1.00;;;17.20;77.00;;;;;;5946760;23;45507;-59
2023/12/23 09:11:53;;;;;;;3.63;0.90;;;17.20;76.60;;;;;;5970947;23;45653;-58
2023/12/23 09:14:20;;;;;;;3.28;0.75;;;17.20;76.70;;;;;;5945347;23;45484;-59
2023/12/23 09:17:21;;;;;;;2.40;0.90;;;17.20;76.60;;;;;;5939376;23;45550;-58
2023/12/23 09:19:59;;;;;;;2.20;0.68;;;17.20;76.40;;;;;;5934052;23;45386;-59
2023/12/23 09:22:53;;;;;;;2.17;0.90;;;17.20;76.50;;;;;;5950140;23;46809;-58
2023/12/23 09:25:58;;;;;;;1.10;0.50;;;17.20;76.50;;;;;;5960393;23;45109;-58
2023/12/23 09:28:52;;;;;;;2.47;0.70;;;17.20;76.10;;;;;;5958836;23;45502;-58
2023/12/23 09:31:19;;;;;;;2.60;0.68;;;17.20;76.40;;;;;;5943289;23;45241;-58
2023/12/23 09:37:20;;;;;;;2.70;0.68;;;17.20;76.60;;;;;;5943382;23;45230;-57
2023/12/23 09:40:15;;;;;;;1.88;0.60;;;17.20;76.00;;;;;;5952720;23;45326;-58
2023/12/23 09:42:51;;;;;;;3.25;0.65;;;17.20;75.80;;;;;;5926998;23;45231;-58
2023/12/23 09:45:47;;;;;;;4.65;0.88;;;17.20;75.80;;;;;;5948134;23;46262;-57
2023/12/23 09:48:32;;;;;;;3.78;0.77;;;17.20;75.80;;;;;;5929594;23;45397;-57
2023/12/23 09:51:10;;;;;;;2.00;0.75;;;17.20;75.90;;;;;;5939596;23;45173;-58
2023/12/23 09:54:09;;;;;;;3.55;0.90;;;17.20;75.80;;;;;;5916012;23;45318;-58
2023/12/23 09:56:58;;;;;;;2.45;0.80;;;17.20;75.80;;;;;;5922004;23;46535;-58
2023/12/23 09:59:50;;;;;;;3.33;0.90;;;17.30;75.90;;;;;;5929074;23;45097;-58
2023/12/23 10:06:16;;;;;;;1.73;0.38;;;17.30;75.90;;;;;;5876171;23;45316;-58
2023/12/23 10:08:55;;;;;;;1.42;0.60;;;17.30;75.90;;;;;;5921923;23;45774;-58
2023/12/23 10:11:34;;;;;;;4.65;0.90;;;17.30;75.90;;;;;;5917894;23;45174;-58
2023/12/23 10:17:04;;;;;;;1.33;0.65;;;17.30;75.70;;;;;;5935555;23;45439;-58
2023/12/23 10:19:32;;;;;;;2.08;0.60;;;17.30;75.90;;;;;;5919704;23;45911;-58
2023/12/23 10:25:46;;;;;;;1.58;0.55;;;17.30;75.90;;;;;;5915321;23;45307;-58
2023/12/23 10:28:57;;;;;;;4.93;0.90;;;17.30;75.90;;;;;;5938502;23;45191;-58
2023/12/23 10:34:47;;;;;;;1.17;0.55;;;17.30;75.90;;;;;;5924454;23;45195;-57
2023/12/23 10:37:41;;;;;;;2.67;0.50;;;17.20;75.80;;;;;;5934306;23;45298;-60
2023/12/23 10:40:29;;;;;;;2.05;0.80;;;17.20;75.80;;;;;;5924414;23;45440;-60
2023/12/23 10:43:08;;;;;;;2.55;0.77;;;17.10;75.80;;;;;;5925691;23;46573;-59
2023/12/23 10:46:03;;;;;;;2.45;0.52;;;17.10;76.00;;;;;;5929814;23;45279;-60
2023/12/23 10:48:39;;;;;;;2.42;0.80;;;17.00;76.40;;;;;;5914934;23;45214;-59
2023/12/23 10:55:10;;;;;;;1.15;0.50;;;16.90;78.20;;;;;;5914849;23;45650;-60
2023/12/23 10:58:05;;;;;;;4.13;0.85;;;16.90;79.60;;;;;;5913807;23;45319;-60
2023/12/23 11:00:54;;;;;;;1.92;0.70;;;16.90;78.80;;;;;;5948909;23;45260;-58
2023/12/23 11:04:00;;;;;;;1.65;0.50;;;16.90;79.00;;;;;;5943646;23;45427;-62
2023/12/23 11:06:55;;;;;;;0.90;0.50;;;16.90;77.80;;;;;;5942777;23;47120;-61
2023/12/23 11:09:39;;;;;;;1.10;0.50;;;16.90;77.20;;;;;;5918163;23;45506;-60
2023/12/23 11:12:22;;;;;;;1.42;0.55;;;17.00;77.10;;;;;;5941208;23;45394;-61
2023/12/23 11:15:19;;;;;;;8.48;1.10;;;17.10;78.00;;;;;;5938291;23;45287;-58
2023/12/23 11:18:11;;;;;;;4.15;0.70;;;17.30;79.90;;;;;;5951576;23;45592;-57
2023/12/23 11:21:34;;;;;;;3.58;0.70;;;17.60;80.20;;;;;;5954596;23;45121;-57
2023/12/23 11:24:01;;;;;;;2.55;0.82;;;17.90;81.10;;;;;;5913571;23;45098;-59
2023/12/23 11:36:37;;;;;;;5.15;1.50;;;17.30;90.50;;;;;;4919281;27;45445;-54
2023/12/23 11:39:16;;;;;;;5.75;1.60;;;13.70;92.50;;;;;;4935517;27;45328;-54
2023/12/23 11:41:45;;;;;;;5.05;1.02;;;11.50;99.90;;;;;;4911516;27;45291;-54
2023/12/23 11:44:17;;;;;;;6.95;1.55;;;;;;;;;;4914810;27;45417;-54
2023/12/23 11:47:16;;;;;;;5.45;1.80;;;11.30;99.90;;;;;;4935991;27;45562;-54
2023/12/23 11:50:24;;;;;;;4.35;1.20;;;11.20;99.90;;;;;;4925300;27;45475;-53
2023/12/23 11:52:53;;;;;;;3.63;1.20;;;11.30;99.90;;;;;;4909505;27;45762;-54
2023/12/23 11:55:20;;;;;;;4.93;1.17;;;11.20;99.90;;;;;;4913495;27;45477;-54
2023/12/23 11:57:58;;;;;;;3.95;1.35;;;11.20;99.90;;;;;;4927441;27;47168;-54
2023/12/23 12:00:25;;;;;;;5.07;1.23;;;11.10;99.90;;;;;;4913754;27;45405;-54
2023/12/23 12:03:14;;;;;;;5.07;1.33;;;11.20;99.90;;;;;;4959119;27;45486;-54
2023/12/23 12:05:44;;;;;;;8.23;1.27;;;11.30;99.90;;;;;;4917526;27;45579;-54
2023/12/23 12:08:21;;;;;;;7.95;1.38;;;11.20;99.90;;;;;;4918982;27;47135;-54
2023/12/23 12:10:49;;;;;;;6.25;1.35;;;11.20;99.90;;;;;;4925029;27;45360;-54
2023/12/23 12:13:19;;;;;;;4.53;1.23;;;11.20;99.90;;;;;;4912883;27;46224;-54
2023/12/23 12:15:49;;;;;;;6.35;1.05;;;11.50;99.90;;;;;;4904092;27;45469;-54
2023/12/23 12:18:18;;;;;;;6.40;1.27;;;11.30;99.90;;;;;;4924224;27;45896;-54
2023/12/23 12:20:44;;;;;;;2.90;1.08;;;11.40;99.90;;;;;;4929915;27;45427;-53
2023/12/23 12:23:13;;;;;;;5.18;0.88;;;11.40;99.90;;;;;;4924863;27;45413;-54
2023/12/23 12:25:56;;;;;;;6.70;0.90;;;11.30;99.90;;;;;;4942007;27;45549;-54
2023/12/23 12:28:33;;;;;;;5.65;1.40;;;11.40;99.90;;;;;;4910517;27;45708;-54
2023/12/23 12:31:13;;;;;;;5.38;0.80;;;11.40;99.90;;;;;;4942048;27;45219;-54
2023/12/23 12:33:58;;;;;;;7.07;1.38;;;11.20;99.90;;;;;;4926636;27;45503;-54
2023/12/23 12:36:45;;;;;;;4.75;1.25;;;11.40;99.90;;;;;;4907405;27;45119;-54
2023/12/23 12:39:14;;;;;;;3.80;0.90;;;11.50;99.90;;;;;;4920545;27;45624;-54
2023/12/23 12:41:56;;;;;;;4.13;1.05;;;11.40;99.90;;;;;;4916703;27;45733;-54
2023/12/23 12:44:26;;;;;;;9.45;1.33;;;11.30;99.90;;;;;;4911263;27;45325;-54
2023/12/23 12:47:15;;;;;;;3.10;1.00;;;11.50;99.90;;;;;;4930334;27;45489;-54
2023/12/23 12:49:46;;;;;;;5.70;1.30;;;11.50;99.90;;;;;;4916129;27;46098;-54
2023/12/23 12:55:36;;;;;;;7.80;1.30;;;11.50;99.90;;;;;;4884620;27;46321;-54
2023/12/23 12:58:03;;;;;;;5.68;1.20;;;11.50;99.90;;;;;;4901529;27;44996;-54
2023/12/23 13:00:57;;;;;;;5.60;1.00;;;11.60;99.90;;;;;;4935091;27;45475;-54
2023/12/23 13:03:34;;;;;;;5.22;1.20;;;11.70;99.90;;;;;;4925127;27;45265;-55
2023/12/23 13:08:47;;;;;;;7.57;1.48;;;11.50;99.90;;;;;;4890908;27;45808;-53
2023/12/23 13:11:49;;;;;;;7.13;1.27;;;11.60;99.90;;;;;;4914247;27;45695;-53
2023/12/23 13:14:53;;;;;;;3.65;0.90;;;11.40;99.90;;;;;;4915535;27;45283;-54
2023/12/23 13:17:41;;;;;;;4.00;0.80;;;11.50;99.90;;;;;;4903949;27;45624;-54
2023/12/23 13:20:23;;;;;;;6.10;1.13;;;11.40;99.90;;;;;;4907579;27;45386;-54
2023/12/23 13:23:05;;;;;;;5.85;1.05;;;11.50;99.90;;;;;;4909435;27;45894;-54
2023/12/23 13:25:50;;;;;;;7.07;0.95;;;11.50;99.90;;;;;;4923475;27;45526;-54
2023/12/23 13:28:18;;;;;;;3.55;1.13;;;12.60;99.90;;;;;;4925791;27;45335;-54
2023/12/23 13:30:45;;;;;;;2.15;0.73;;;14.80;99.90;;;;;;4911127;27;45260;-54
2023/12/23 13:33:12;;;;;;;6.55;1.02;;;15.80;97.60;;;;;;4897369;27;45515;-54
2023/12/23 13:35:57;;;;;;;3.70;0.70;;;16.40;95.10;;;;;;4906852;27;44999;-54
2023/12/23 13:38:25;;;;;;;4.05;0.60;;;16.80;93.70;;;;;;4915867;27;45196;-54
2023/12/23 13:40:54;;;;;;;2.90;0.68;;;16.90;92.70;;;;;;4890347;27;45339;-54
2023/12/23 13:43:44;;;;;;;5.63;1.00;;;17.00;92.00;;;;;;4919036;27;45418;-54
2023/12/23 13:46:12;;;;;;;2.03;0.80;;;17.10;91.80;;;;;;4900290;27;45227;-54
2023/12/23 13:49:00;;;;;;;2.72;0.70;;;17.20;91.80;;;;;;4968285;27;45733;-54
2023/12/23 13:51:48;;;;;;;4.00;1.15;;;17.20;91.50;;;;;;4928564;27;45369;-54
2023/12/23 13:54:26;;;;;;;4.57;0.63;;;17.20;91.00;;;;;;4903172;27;46780;-54
2023/12/23 13:57:40;;;;;;;2.63;0.90;;;17.20;91.20;;;;;;4913554;27;45464;-54
2023/12/23 14:00:42;;;;;;;1.13;0.52;;;17.20;91.40;;;;;;4917289;27;45413;-54
2023/12/23 14:03:49;;;;;;;2.45;0.60;;;17.20;91.60;;;;;;4908879;27;45343;-54
2023/12/23 14:06:34;;;;;;;3.25;0.65;;;17.20;91.20;;;;;;4913704;27;46765;-54
2023/12/23 14:09:12;;;;;;;4.35;0.60;;;17.20;91.30;;;;;;4939953;27;45097;-54
2023/12/23 14:12:11;;;;;;;3.00;0.77;;;17.20;91.20;;;;;;4922953;27;45194;-54
2023/12/23 14:14:59;;;;;;;1.48;0.50;;;17.20;90.90;;;;;;4924536;27;45326;-54
2023/12/23 14:17:36;;;;;;;3.88;0.80;;;17.20;91.00;;;;;;4898995;27;46980;-54
2023/12/23 14:23:58;;;;;;;2.80;0.88;;;17.30;91.00;;;;;;4869754;27;45350;-53
2023/12/23 14:26:43;;;;;;;2.28;0.70;;;17.30;91.30;;;;;;4927416;27;45469;-54
2023/12/23 14:29:25;;;;;;;2.78;0.70;;;17.30;91.00;;;;;;4930264;27;46795;-54
2023/12/23 14:31:51;;;;;;;3.22;0.50;;;17.30;91.00;;;;;;4922275;27;45942;-54
2023/12/23 14:34:20;;;;;;;2.28;0.50;;;17.30;91.10;;;;;;4914021;27;45244;-54
2023/12/23 14:37:06;;;;;;;3.05;0.85;;;17.30;90.90;;;;;;4908630;27;45352;-54
2023/12/23 14:39:45;;;;;;;1.25;0.40;;;17.30;91.10;;;;;;4923918;27;45679;-54
2023/12/23 14:42:29;;;;;;;1.95;0.55;;;17.30;90.90;;;;;;4923844;27;45309;-54
2023/12/23 14:45:13;;;;;;;1.48;0.60;;;17.30;91.00;;;;;;4915325;27;45385;-54
2023/12/23 14:48:05;;;;;;;2.40;0.55;;;17.30;91.00;;;;;;4902641;27;45315;-54
2023/12/23 14:51:03;;;;;;;2.53;0.75;;;17.30;91.10;;;;;;4911946;27;46192;-54
2023/12/23 14:54:00;;;;;;;0.40;0.40;;;17.30;90.80;;;;;;4930054;27;45398;-54
2023/12/23 14:56:56;;;;;;;1.95;0.80;;;17.30;91.00;;;;;;4940092;27;45619;-54
2023/12/23 14:59:27;;;;;;;2.70;0.65;;;17.30;91.20;;;;;;4912893;27;45470;-54
2023/12/23 15:02:30;;;;;;;1.92;0.60;;;17.30;91.30;;;;;;4914735;27;45561;-54
2023/12/23 15:05:02;;;;;;;1.33;0.65;;;17.30;91.40;;;;;;4902907;27;44981;-54
2023/12/23 15:07:43;;;;;;;1.85;0.55;;;17.30;91.30;;;;;;4916788;27;45371;-54
2023/12/23 15:10:24;;;;;;;2.05;0.68;;;17.30;91.30;;;;;;4916712;27;46504;-54
2023/12/23 15:13:03;;;;;;;1.52;0.70;;;17.30;91.60;;;;;;4912469;27;46107;-54
2023/12/23 15:15:46;;;;;;;1.42;0.80;;;17.30;91.40;;;;;;4909725;27;45514;-54
2023/12/23 15:18:26;;;;;;;1.75;0.65;;;17.30;91.50;;;;;;4894710;27;45365;-54
2023/12/23 15:20:54;;;;;;;2.70;0.50;;;17.30;91.40;;;;;;4903602;27;45339;-54
2023/12/23 15:23:44;;;;;;;2.58;0.70;;;17.30;91.40;;;;;;4938223;27;46680;-54
2023/12/23 15:26:42;;;;;;;1.77;0.50;;;17.30;91.40;;;;;;4920338;27;45502;-54
2023/12/23 15:29:48;;;;;;;2.95;0.73;;;17.30;91.10;;;;;;4907734;27;45395;-54
2023/12/23 15:32:52;;;;;;;1.95;0.50;;;17.30;91.00;;;;;;4913111;27;45372;-54
2023/12/23 15:35:51;;;;;;;2.22;0.40;;;17.40;90.90;;;;;;4921120;27;45968;-54
2023/12/23 15:38:29;;;;;;;1.65;0.52;;;17.40;91.10;;;;;;4908366;27;45414;-54
2023/12/23 15:41:10;;;;;;;2.28;0.75;;;17.40;91.00;;;;;;4923148;27;45454;-54
2023/12/23 15:43:53;;;;;;;2.55;0.60;;;17.40;90.60;;;;;;4904663;27;45382;-54
2023/12/23 15:46:45;;;;;;;1.23;0.50;;;17.40;90.80;;;;;;4923923;27;45386;-54
2023/12/23 15:49:32;;;;;;;1.95;0.68;;;17.40;91.00;;;;;;4921704;27;45472;-54
2023/12/23 15:51:59;;;;;;;2.70;0.70;;;17.40;90.70;;;;;;4908229;27;45006;-54
2023/12/23 15:54:26;;;;;;;2.50;0.80;;;17.30;90.90;;;;;;4906564;27;45652;-54
2023/12/23 15:57:18;;;;;;;1.70;0.60;;;17.30;90.90;;;;;;4939934;27;45905;-54
2023/12/23 15:59:45;;;;;;;2.33;0.77;;;17.30;90.90;;;;;;4890328;27;45531;-54
2023/12/23 16:02:18;;;;;;;2.28;0.30;;;17.30;91.50;;;;;;4888015;27;45437;-54